Skip to Main Content

Video Notice

If you see just a black screen when trying to view Live Traffic cameras, please click inside the window to get video to play. An update to certain browsers is not allowing the video to auto-play when the window opens. 

SEARCH:
Location Air RH Dwp Precip Type Wind Speed Wind Gust Direction Pavement Temperature Date/Time
Hatem Bridge US 40 E/B 86 66 73 None 13 mph 16 mph SW 91 - 91 8/17/2018 6:33:00 PM
I-270 at I-370 82 68 71 Rain Calm Calm N 94 - 95 8/17/2018 6:30:00 PM
I-270 at MD-109 78 82 72 None Calm 6 mph N 90 - 90 8/17/2018 6:30:00 PM
I-495 at American Legion Bridge 84 65 71 None 6 mph 15 mph W 96 - 97 8/17/2018 6:30:00 PM
I-68 at Savage Mt 75 81 69 None Calm 5 mph W 86 - 89 8/17/2018 6:30:00 PM
I-68 at Sideling Hill 77 93 75 None 4 mph 8 mph S 94 - 96 8/17/2018 6:30:00 PM
I-68 at US 219 74 82 69 None 9 mph 17 mph SW 92 - 92 8/17/2018 6:30:00 PM
I-68 at WV Line 78 71 68 None 4 mph 8 mph W 87 - 88 8/17/2018 6:30:00 PM
I-695 at I-83 86 63 72 None Calm 6 mph SW 98 - 98 8/17/2018 6:30:00 PM
I-695 on FSK Bridge 86 71 76 None 16 mph 18 mph NW 89 - 89 8/17/2018 6:34:00 PM
I-70 at Fred-Wash Co. 72 98 71 None Calm 5 mph SE 79 - 80 8/17/2018 6:30:00 PM
I-70 at I-695 85 69 74 None 4 mph 8 mph S 100 - 98 8/17/2018 6:30:00 PM
I-70 at I-81 76 93 74 None 7 mph 16 mph SW - 8/17/2018 6:30:00 PM
I-70 at MD-27 79 73 70 Rain Calm 13 mph W 92 - 93 8/17/2018 6:30:00 PM
I-70 at MD-32 83 72 74 None Calm 10 mph SW 96 - 99 8/17/2018 6:30:00 PM
I-83 at MD-137 84 75 75 None Calm 5 mph S 95 - 95 8/17/2018 6:30:00 PM
I-95 at I-695 NE 87 68 76 None 6 mph 7 mph SW 95 - 98 8/17/2018 6:34:00 PM
I-95 at Patuxent River 88 63 74 None 4 mph 14 mph NW 97 - 98 8/17/2018 6:30:00 PM
I-95 at Tydings Bridge 85 69 74 None 5 mph 11 mph SW 97 - 98 8/17/2018 6:30:00 PM
I-95/495 at I-295 92 62 77 None Calm Calm SW 92 - 95 8/17/2018 6:30:00 PM
I-97 at MD-100 88 65 75 None 9 mph 15 mph SW 96 - 97 8/17/2018 6:30:00 PM
I-97 at MD-32 84 72 74 None 4 mph 9 mph S 96 - 96 8/17/2018 6:30:00 PM
IS 70 W of I-270 - - - No Data Available - - No Data Available 85 - 85 8/17/2018 6:30:00 PM
MD 136 @ MD 646 82 82 76 No Data Available Calm 5 mph N 100 - 100 8/17/2018 6:30:00 PM
MD 20 at MD 21 85 73 75 None 7 mph 13 mph SW 103 - 103 8/17/2018 6:30:00 PM
MD 23 at Meadowtree Road 82 76 74 No Data Available Calm 6 mph E 92 - 92 8/17/2018 6:30:00 PM
MD 231 at Patuxent River 85 76 77 None 5 mph 8 mph SW 100 - 98 8/17/2018 6:30:00 PM
MD 24 at Jarrettsville Road 83 80 76 No Data Available Calm 5 mph SW 102 - 102 8/17/2018 6:30:00 PM
MD 260 at Cox Rd 85 75 77 None 4 mph 6 mph W 103 - 103 8/17/2018 6:30:00 PM
MD-135 at Salt Dome 75 85 70 None 6 mph 14 mph W 94 - 94 8/17/2018 6:30:00 PM
MD-140 at MD-97 81 79 74 None 7 mph 16 mph SW 93 - 94 8/17/2018 6:30:00 PM
MD-200 EB at Bonifant Rd - - - No Data Available - - No Data Available -
MD-200 WB at Muncaster Mill Rd 83 69 71 None 11 mph 22 mph NW 93 - 93 8/17/2018 6:33:00 PM
MD-213 at Sassafras River 87 73 77 None 5 mph 11 mph SW 99 - 99 8/17/2018 6:30:00 PM
MD-24 at Rock St Park 80 98 79 None Calm Calm N 83 - 83 8/17/2018 6:30:00 PM
MD-30 at PA Line 79 86 75 None Calm Calm SW 94 - 94 8/17/2018 6:30:00 PM
MD-33 at Knapps Narrows Drawbridge 85 79 78 None 4 mph 14 mph SW 109 - 109 8/17/2018 6:30:00 PM
MD-344 at MD-224 82 86 77 None Calm Calm N 102 - 102 8/17/2018 6:30:00 PM
MD-4 at Patuxent River 88 74 79 None 9 mph 13 mph S 100 - 104 8/17/2018 6:33:00 PM
MD-404 at Choptank River 87 68 75 None 6 mph 13 mph S 101 - 103 8/17/2018 6:30:00 PM
MD-43 at MD-150 86 77 78 None 8 mph 12 mph SW 98 - 99 8/17/2018 6:30:00 PM
MD-51 at Oldtown Salt Dome 80 78 73 None Calm 4 mph E 93 - 93 8/17/2018 6:30:00 PM
MD-64 at MD-418 77 84 71 None 8 mph 14 mph SW 97 - 97 8/17/2018 6:30:00 PM
US 301 at MD 305 86 69 75 None 5 mph 8 mph S 104 - 109 8/17/2018 6:30:00 PM
US-1 at Baltimore / Harford Co. Line 80 89 77 None Calm Calm N 92 - 92 8/17/2018 6:30:00 PM
US-1 at Conowingo Dam 84 78 76 None 4 mph 9 mph SW 100 - 100 8/17/2018 6:30:00 PM
US-13 at US-113 85 71 75 None 8 mph 12 mph S 106 - 107 8/17/2018 6:30:00 PM
US-13 at US-50 86 63 72 None 4 mph 9 mph S 100 - 100 8/17/2018 6:30:00 PM
US-15 at MD-140 74 92 72 None Calm 10 mph S 85 - 87 8/17/2018 6:30:00 PM
US-301 at MD-5 86 70 75 None 4 mph 8 mph S 101 - 99 8/17/2018 6:30:00 PM
US-301 at Potomac 88 79 81 None 6 mph 9 mph S 93 - 96 8/17/2018 6:34:00 PM
US-340 at MD-180 72 92 70 Rain 5 mph 9 mph SE 81 - 85 8/17/2018 6:30:00 PM
US-50 at Choptank 86 78 79 None Calm 9 mph S 100 - 98 8/17/2018 6:30:00 PM
US-50 at I-95 88 66 75 None Calm 7 mph NE 97 - 99 8/17/2018 6:30:00 PM
US-50 at MD-2 84 86 80 None 5 mph 8 mph S 95 - 99 8/17/2018 6:30:00 PM
US-50 at MD-331 86 72 76 None 7 mph 13 mph SW 100 - 102 8/17/2018 6:30:00 PM
US-50 at OC Drawbridge 83 84 78 None 5 mph 14 mph SE 103 - 103 8/17/2018 6:30:00 PM
US-50 at Table Rock Rd 74 86 69 None 4 mph 9 mph W 98 - 98 8/17/2018 6:30:00 PM
US-50 Kent Narrow Bridge 86 81 79 None 8 mph 14 mph S 97 - 98 8/17/2018 6:30:00 PM
WPL Pier 31 83 82 77 None Calm 15 mph SE 94 - 94 8/17/2018 6:33:00 PM
Location Air RH Dwp Precip Type Wind Speed Wind Gust Direction Pavement Temperature Date/Time